sensor_id;sensor_type;location;lat;lon;timestamp;temperature;humidity
32977;DHT22;47687;50.842;4.450;2022-08-25T00:01:14;22.40;99.90
32977;DHT22;47687;50.842;4.450;2022-08-25T00:03:41;22.30;99.90
32977;DHT22;47687;50.842;4.450;2022-08-25T00:06:07;22.30;99.90
32977;DHT22;47687;50.842;4.450;2022-08-25T00:08:34;22.20;99.90
32977;DHT22;47687;50.842;4.450;2022-08-25T00:11:04;22.30;99.90
32977;DHT22;47687;50.842;4.450;2022-08-25T00:13:30;22.20;99.90
32977;DHT22;47687;50.842;4.450;2022-08-25T00:15:55;22.10;99.90
32977;DHT22;47687;50.842;4.450;2022-08-25T00:18:21;22.10;99.90
32977;DHT22;47687;50.842;4.450;2022-08-25T00:20:47;22.10;99.90
32977;DHT22;47687;50.842;4.450;2022-08-25T00:23:13;22.00;99.90
32977;DHT22;47687;50.842;4.450;2022-08-25T00:25:39;22.00;99.90
32977;DHT22;47687;50.842;4.450;2022-08-25T00:28:04;21.90;99.90
32977;DHT22;47687;50.842;4.450;2022-08-25T00:30:30;21.90;99.90
32977;DHT22;47687;50.842;4.450;2022-08-25T00:32:55;21.90;99.90
32977;DHT22;47687;50.842;4.450;2022-08-25T00:35:21;21.80;99.90
32977;DHT22;47687;50.842;4.450;2022-08-25T00:37:48;21.80;99.90
32977;DHT22;47687;50.842;4.450;2022-08-25T00:40:14;21.70;99.90
32977;DHT22;47687;50.842;4.450;2022-08-25T00:42:40;21.70;99.90
32977;DHT22;47687;50.842;4.450;2022-08-25T00:45:07;21.60;99.90
32977;DHT22;47687;50.842;4.450;2022-08-25T00:47:33;21.60;99.90
32977;DHT22;47687;50.842;4.450;2022-08-25T00:50:00;21.60;99.90
32977;DHT22;47687;50.842;4.450;2022-08-25T00:52:30;21.50;99.90
32977;DHT22;47687;50.842;4.450;2022-08-25T00:55:20;21.50;99.90
32977;DHT22;47687;50.842;4.450;2022-08-25T01:00:37;21.50;99.90
32977;DHT22;47687;50.842;4.450;2022-08-25T01:03:04;21.40;99.90
32977;DHT22;47687;50.842;4.450;2022-08-25T01:05:30;21.30;99.90
32977;DHT22;47687;50.842;4.450;2022-08-25T01:07:57;21.30;99.90
32977;DHT22;47687;50.842;4.450;2022-08-25T01:10:25;21.30;99.90
32977;DHT22;47687;50.842;4.450;2022-08-25T01:12:52;21.30;99.90
32977;DHT22;47687;50.842;4.450;2022-08-25T01:15:20;21.20;99.90
32977;DHT22;47687;50.842;4.450;2022-08-25T01:17:50;21.20;99.90
32977;DHT22;47687;50.842;4.450;2022-08-25T01:20:19;21.20;99.90
32977;DHT22;47687;50.842;4.450;2022-08-25T01:22:45;21.10;99.90
32977;DHT22;47687;50.842;4.450;2022-08-25T01:28:24;21.10;99.90
32977;DHT22;47687;50.842;4.450;2022-08-25T01:30:49;21.10;99.90
32977;DHT22;47687;50.842;4.450;2022-08-25T01:33:17;21.00;99.90
32977;DHT22;47687;50.842;4.450;2022-08-25T01:35:43;21.00;99.90
32977;DHT22;47687;50.842;4.450;2022-08-25T01:38:09;20.90;99.90
32977;DHT22;47687;50.842;4.450;2022-08-25T01:40:36;20.90;99.90
32977;DHT22;47687;50.842;4.450;2022-08-25T01:45:43;20.90;99.90
32977;DHT22;47687;50.842;4.450;2022-08-25T01:48:09;20.90;99.90
32977;DHT22;47687;50.842;4.450;2022-08-25T01:50:36;20.90;99.90
32977;DHT22;47687;50.842;4.450;2022-08-25T01:55:31;20.80;99.90
32977;DHT22;47687;50.842;4.450;2022-08-25T01:58:20;20.70;99.90
32977;DHT22;47687;50.842;4.450;2022-08-25T02:00:48;20.70;99.90
32977;DHT22;47687;50.842;4.450;2022-08-25T02:03:14;20.60;99.90
32977;DHT22;47687;50.842;4.450;2022-08-25T02:05:40;20.60;99.90
32977;DHT22;47687;50.842;4.450;2022-08-25T02:08:05;20.60;99.90
32977;DHT22;47687;50.842;4.450;2022-08-25T02:10:32;20.50;99.90
32977;DHT22;47687;50.842;4.450;2022-08-25T02:12:57;20.60;99.90
32977;DHT22;47687;50.842;4.450;2022-08-25T02:15:24;20.50;99.90
32977;DHT22;47687;50.842;4.450;2022-08-25T02:17:49;20.50;99.90
32977;DHT22;47687;50.842;4.450;2022-08-25T02:20:15;20.50;99.90
32977;DHT22;47687;50.842;4.450;2022-08-25T02:22:41;20.50;99.90
32977;DHT22;47687;50.842;4.450;2022-08-25T02:25:07;20.40;99.90
32977;DHT22;47687;50.842;4.450;2022-08-25T02:27:33;20.40;99.90
32977;DHT22;47687;50.842;4.450;2022-08-25T02:29:59;20.40;99.90
32977;DHT22;47687;50.842;4.450;2022-08-25T02:32:25;20.40;99.90
32977;DHT22;47687;50.842;4.450;2022-08-25T02:34:51;20.30;99.90
32977;DHT22;47687;50.842;4.450;2022-08-25T02:37:17;20.20;99.90
32977;DHT22;47687;50.842;4.450;2022-08-25T02:39:43;20.20;99.90
32977;DHT22;47687;50.842;4.450;2022-08-25T02:42:08;20.20;99.90
32977;DHT22;47687;50.842;4.450;2022-08-25T02:44:34;20.20;99.90
32977;DHT22;47687;50.842;4.450;2022-08-25T02:46:59;20.20;99.90
32977;DHT22;47687;50.842;4.450;2022-08-25T02:49:25;20.10;99.90
32977;DHT22;47687;50.842;4.450;2022-08-25T02:51:51;20.10;99.90
32977;DHT22;47687;50.842;4.450;2022-08-25T02:54:16;20.10;99.90
32977;DHT22;47687;50.842;4.450;2022-08-25T02:56:42;20.10;99.90
32977;DHT22;47687;50.842;4.450;2022-08-25T02:59:08;20.00;99.90
32977;DHT22;47687;50.842;4.450;2022-08-25T03:01:33;20.00;99.90
32977;DHT22;47687;50.842;4.450;2022-08-25T03:04:00;20.00;99.90
32977;DHT22;47687;50.842;4.450;2022-08-25T03:06:26;20.00;99.90
32977;DHT22;47687;50.842;4.450;2022-08-25T03:08:52;20.00;99.90
32977;DHT22;47687;50.842;4.450;2022-08-25T03:11:19;20.00;99.90
32977;DHT22;47687;50.842;4.450;2022-08-25T03:13:45;19.90;99.90
32977;DHT22;47687;50.842;4.450;2022-08-25T03:16:11;19.90;99.90
32977;DHT22;47687;50.842;4.450;2022-08-25T03:18:38;19.90;99.90
32977;DHT22;47687;50.842;4.450;2022-08-25T03:21:05;19.90;99.90
32977;DHT22;47687;50.842;4.450;2022-08-25T03:23:30;19.80;99.90
32977;DHT22;47687;50.842;4.450;2022-08-25T03:25:56;19.80;99.90
32977;DHT22;47687;50.842;4.450;2022-08-25T03:28:40;19.80;99.90
32977;DHT22;47687;50.842;4.450;2022-08-25T03:31:07;19.80;99.90
32977;DHT22;47687;50.842;4.450;2022-08-25T03:33:34;19.80;99.90
32977;DHT22;47687;50.842;4.450;2022-08-25T03:36:00;19.80;99.90
32977;DHT22;47687;50.842;4.450;2022-08-25T03:38:26;19.70;99.90
32977;DHT22;47687;50.842;4.450;2022-08-25T03:40:52;19.70;99.90
32977;DHT22;47687;50.842;4.450;2022-08-25T03:43:19;19.70;99.90
32977;DHT22;47687;50.842;4.450;2022-08-25T03:45:45;19.60;99.90
32977;DHT22;47687;50.842;4.450;2022-08-25T03:48:12;19.60;99.90
32977;DHT22;47687;50.842;4.450;2022-08-25T03:50:46;19.60;99.90
32977;DHT22;47687;50.842;4.450;2022-08-25T03:53:12;19.60;99.90
32977;DHT22;47687;50.842;4.450;2022-08-25T03:55:38;19.60;99.90
32977;DHT22;47687;50.842;4.450;2022-08-25T03:58:04;19.60;99.90
32977;DHT22;47687;50.842;4.450;2022-08-25T04:00:30;19.60;99.90
32977;DHT22;47687;50.842;4.450;2022-08-25T04:02:55;19.60;99.90
32977;DHT22;47687;50.842;4.450;2022-08-25T04:05:22;19.60;99.90
32977;DHT22;47687;50.842;4.450;2022-08-25T04:07:48;19.50;99.90
32977;DHT22;47687;50.842;4.450;2022-08-25T04:10:13;19.50;99.90
32977;DHT22;47687;50.842;4.450;2022-08-25T04:12:39;19.50;99.90
32977;DHT22;47687;50.842;4.450;2022-08-25T04:15:07;19.50;99.90
32977;DHT22;47687;50.842;4.450;2022-08-25T04:17:36;19.50;99.90
32977;DHT22;47687;50.842;4.450;2022-08-25T04:20:03;19.50;99.90
32977;DHT22;47687;50.842;4.450;2022-08-25T04:22:29;19.50;99.90
32977;DHT22;47687;50.842;4.450;2022-08-25T04:24:57;19.50;99.90
32977;DHT22;47687;50.842;4.450;2022-08-25T04:27:23;19.50;99.90
32977;DHT22;47687;50.842;4.450;2022-08-25T04:29:49;19.50;99.90
32977;DHT22;47687;50.842;4.450;2022-08-25T04:32:15;19.40;99.90
32977;DHT22;47687;50.842;4.450;2022-08-25T04:34:40;19.50;99.90
32977;DHT22;47687;50.842;4.450;2022-08-25T04:37:07;19.50;99.90
32977;DHT22;47687;50.842;4.450;2022-08-25T04:39:33;19.50;99.90
32977;DHT22;47687;50.842;4.450;2022-08-25T04:42:00;19.50;99.90
32977;DHT22;47687;50.842;4.450;2022-08-25T04:44:26;19.50;99.90
32977;DHT22;47687;50.842;4.450;2022-08-25T04:46:52;19.40;99.90
32977;DHT22;47687;50.842;4.450;2022-08-25T04:49:18;19.50;99.90
32977;DHT22;47687;50.842;4.450;2022-08-25T04:51:44;19.40;99.90
32977;DHT22;47687;50.842;4.450;2022-08-25T04:54:12;19.50;99.90
32977;DHT22;47687;50.842;4.450;2022-08-25T04:56:42;19.60;99.90
32977;DHT22;47687;50.842;4.450;2022-08-25T04:59:11;19.60;99.90
32977;DHT22;47687;50.842;4.450;2022-08-25T05:01:38;19.60;99.90
32977;DHT22;47687;50.842;4.450;2022-08-25T05:04:06;19.60;99.90
32977;DHT22;47687;50.842;4.450;2022-08-25T05:06:32;19.60;99.90
32977;DHT22;47687;50.842;4.450;2022-08-25T05:08:58;19.70;99.90
32977;DHT22;47687;50.842;4.450;2022-08-25T05:11:26;19.70;99.90
32977;DHT22;47687;50.842;4.450;2022-08-25T05:13:54;19.80;99.90
32977;DHT22;47687;50.842;4.450;2022-08-25T05:16:23;19.80;99.90
32977;DHT22;47687;50.842;4.450;2022-08-25T05:18:49;19.90;99.90
32977;DHT22;47687;50.842;4.450;2022-08-25T05:21:18;19.90;99.90
32977;DHT22;47687;50.842;4.450;2022-08-25T05:23:44;20.10;99.90
32977;DHT22;47687;50.842;4.450;2022-08-25T05:26:17;20.20;99.90
32977;DHT22;47687;50.842;4.450;2022-08-25T05:28:44;20.40;99.90
32977;DHT22;47687;50.842;4.450;2022-08-25T05:31:12;20.50;99.90
32977;DHT22;47687;50.842;4.450;2022-08-25T05:33:40;20.60;99.90
32977;DHT22;47687;50.842;4.450;2022-08-25T05:36:09;20.80;99.90
32977;DHT22;47687;50.842;4.450;2022-08-25T05:38:35;20.90;99.90
32977;DHT22;47687;50.842;4.450;2022-08-25T05:41:05;21.10;99.90
32977;DHT22;47687;50.842;4.450;2022-08-25T05:43:31;21.20;99.90
32977;DHT22;47687;50.842;4.450;2022-08-25T05:45:58;21.40;99.90
32977;DHT22;47687;50.842;4.450;2022-08-25T05:48:32;21.60;99.90
32977;DHT22;47687;50.842;4.450;2022-08-25T05:51:00;21.80;99.90
32977;DHT22;47687;50.842;4.450;2022-08-25T05:53:27;22.00;99.90
32977;DHT22;47687;50.842;4.450;2022-08-25T05:55:55;22.20;99.90
32977;DHT22;47687;50.842;4.450;2022-08-25T05:58:22;22.40;99.90
32977;DHT22;47687;50.842;4.450;2022-08-25T06:00:48;22.60;99.90
32977;DHT22;47687;50.842;4.450;2022-08-25T06:03:14;22.80;99.90
32977;DHT22;47687;50.842;4.450;2022-08-25T06:05:40;23.00;99.90
32977;DHT22;47687;50.842;4.450;2022-08-25T06:08:06;23.20;99.90
32977;DHT22;47687;50.842;4.450;2022-08-25T06:10:32;23.30;99.90
32977;DHT22;47687;50.842;4.450;2022-08-25T06:12:57;23.50;99.90
32977;DHT22;47687;50.842;4.450;2022-08-25T06:15:24;23.60;99.90
32977;DHT22;47687;50.842;4.450;2022-08-25T06:17:50;23.80;99.90
32977;DHT22;47687;50.842;4.450;2022-08-25T06:20:22;23.90;99.90
32977;DHT22;47687;50.842;4.450;2022-08-25T06:22:49;24.00;99.90
32977;DHT22;47687;50.842;4.450;2022-08-25T06:25:19;24.10;99.90
32977;DHT22;47687;50.842;4.450;2022-08-25T06:27:45;24.20;99.90
32977;DHT22;47687;50.842;4.450;2022-08-25T06:30:14;24.30;99.90
32977;DHT22;47687;50.842;4.450;2022-08-25T06:32:41;24.40;98.40
32977;DHT22;47687;50.842;4.450;2022-08-25T06:35:10;24.50;97.60
32977;DHT22;47687;50.842;4.450;2022-08-25T06:37:37;24.50;96.90
32977;DHT22;47687;50.842;4.450;2022-08-25T06:40:08;24.70;95.90
32977;DHT22;47687;50.842;4.450;2022-08-25T06:42:35;24.70;95.50
32977;DHT22;47687;50.842;4.450;2022-08-25T06:45:04;24.70;95.10
32977;DHT22;47687;50.842;4.450;2022-08-25T06:47:30;24.80;95.10
32977;DHT22;47687;50.842;4.450;2022-08-25T06:49:56;24.90;95.00
32977;DHT22;47687;50.842;4.450;2022-08-25T06:52:22;25.00;95.00
32977;DHT22;47687;50.842;4.450;2022-08-25T06:54:48;25.10;94.60
32977;DHT22;47687;50.842;4.450;2022-08-25T06:57:15;25.30;94.70
32977;DHT22;47687;50.842;4.450;2022-08-25T06:59:42;25.40;94.50
32977;DHT22;47687;50.842;4.450;2022-08-25T07:02:10;25.50;94.40
32977;DHT22;47687;50.842;4.450;2022-08-25T07:04:36;25.60;93.30
32977;DHT22;47687;50.842;4.450;2022-08-25T07:07:02;25.80;93.10
32977;DHT22;47687;50.842;4.450;2022-08-25T07:09:28;26.00;92.50
32977;DHT22;47687;50.842;4.450;2022-08-25T07:11:54;26.20;92.20
32977;DHT22;47687;50.842;4.450;2022-08-25T07:14:20;26.40;92.00
32977;DHT22;47687;50.842;4.450;2022-08-25T07:16:46;26.50;91.80
32977;DHT22;47687;50.842;4.450;2022-08-25T07:19:12;26.60;91.60
32977;DHT22;47687;50.842;4.450;2022-08-25T07:21:39;26.80;91.10
32977;DHT22;47687;50.842;4.450;2022-08-25T07:24:08;26.90;90.70
32977;DHT22;47687;50.842;4.450;2022-08-25T07:26:35;27.00;90.40
32977;DHT22;47687;50.842;4.450;2022-08-25T07:29:04;27.10;90.10
32977;DHT22;47687;50.842;4.450;2022-08-25T07:31:30;27.10;89.30
32977;DHT22;47687;50.842;4.450;2022-08-25T07:33:56;27.10;89.20
32977;DHT22;47687;50.842;4.450;2022-08-25T07:36:40;27.10;88.80
32977;DHT22;47687;50.842;4.450;2022-08-25T07:39:06;27.10;88.70
32977;DHT22;47687;50.842;4.450;2022-08-25T07:41:35;27.00;89.30
32977;DHT22;47687;50.842;4.450;2022-08-25T07:44:03;27.00;89.70
32977;DHT22;47687;50.842;4.450;2022-08-25T07:46:32;27.10;90.00
32977;DHT22;47687;50.842;4.450;2022-08-25T07:48:58;27.00;88.90
32977;DHT22;47687;50.842;4.450;2022-08-25T07:51:25;27.00;88.50
32977;DHT22;47687;50.842;4.450;2022-08-25T07:53:51;27.20;88.60
32977;DHT22;47687;50.842;4.450;2022-08-25T07:56:17;27.20;88.70
32977;DHT22;47687;50.842;4.450;2022-08-25T07:58:44;27.40;88.10
32977;DHT22;47687;50.842;4.450;2022-08-25T08:01:15;27.40;88.00
32977;DHT22;47687;50.842;4.450;2022-08-25T08:03:40;27.40;88.20
32977;DHT22;47687;50.842;4.450;2022-08-25T08:06:08;27.40;88.40
32977;DHT22;47687;50.842;4.450;2022-08-25T08:08:39;27.50;88.20
32977;DHT22;47687;50.842;4.450;2022-08-25T08:11:22;27.60;88.20
32977;DHT22;47687;50.842;4.450;2022-08-25T08:13:50;27.60;88.10
32977;DHT22;47687;50.842;4.450;2022-08-25T08:16:17;27.80;88.20
32977;DHT22;47687;50.842;4.450;2022-08-25T08:18:44;27.80;88.50
32977;DHT22;47687;50.842;4.450;2022-08-25T08:21:15;27.70;87.80
32977;DHT22;47687;50.842;4.450;2022-08-25T08:23:41;27.70;87.80
32977;DHT22;47687;50.842;4.450;2022-08-25T08:26:07;27.70;88.50
32977;DHT22;47687;50.842;4.450;2022-08-25T08:28:33;27.60;89.50
32977;DHT22;47687;50.842;4.450;2022-08-25T08:30:58;27.60;89.10
32977;DHT22;47687;50.842;4.450;2022-08-25T08:33:24;27.60;88.80
32977;DHT22;47687;50.842;4.450;2022-08-25T08:36:05;27.60;88.40
32977;DHT22;47687;50.842;4.450;2022-08-25T08:38:33;27.60;88.30
32977;DHT22;47687;50.842;4.450;2022-08-25T08:44:21;27.70;88.20
32977;DHT22;47687;50.842;4.450;2022-08-25T08:49:55;27.90;88.10
32977;DHT22;47687;50.842;4.450;2022-08-25T08:52:39;27.90;87.60
32977;DHT22;47687;50.842;4.450;2022-08-25T08:55:25;28.00;87.30
32977;DHT22;47687;50.842;4.450;2022-08-25T08:57:52;28.10;87.50
32977;DHT22;47687;50.842;4.450;2022-08-25T09:00:20;28.10;86.60
32977;DHT22;47687;50.842;4.450;2022-08-25T09:02:56;28.10;86.50
32977;DHT22;47687;50.842;4.450;2022-08-25T09:05:26;28.20;86.80
32977;DHT22;47687;50.842;4.450;2022-08-25T09:07:56;28.20;86.20
32977;DHT22;47687;50.842;4.450;2022-08-25T09:10:23;28.20;86.70
32977;DHT22;47687;50.842;4.450;2022-08-25T09:18:29;28.30;85.40
32977;DHT22;47687;50.842;4.450;2022-08-25T09:21:07;28.50;84.20
32977;DHT22;47687;50.842;4.450;2022-08-25T09:29:04;28.60;81.70
32977;DHT22;47687;50.842;4.450;2022-08-25T09:31:32;28.70;81.00
32977;DHT22;47687;50.842;4.450;2022-08-25T09:34:05;28.60;81.70
32977;DHT22;47687;50.842;4.450;2022-08-25T09:36:32;28.80;81.00
32977;DHT22;47687;50.842;4.450;2022-08-25T09:38:58;28.80;80.90
32977;DHT22;47687;50.842;4.450;2022-08-25T09:41:57;28.80;81.10
32977;DHT22;47687;50.842;4.450;2022-08-25T09:44:33;28.90;82.50
32977;DHT22;47687;50.842;4.450;2022-08-25T09:47:04;28.90;80.70
32977;DHT22;47687;50.842;4.450;2022-08-25T09:49:44;29.00;81.10
32977;DHT22;47687;50.842;4.450;2022-08-25T09:57:44;29.30;78.80
32977;DHT22;47687;50.842;4.450;2022-08-25T10:00:35;29.40;77.90
32977;DHT22;47687;50.842;4.450;2022-08-25T10:03:21;29.50;77.00
32977;DHT22;47687;50.842;4.450;2022-08-25T10:06:05;29.50;78.10
32977;DHT22;47687;50.842;4.450;2022-08-25T10:11:12;29.80;75.60
32977;DHT22;47687;50.842;4.450;2022-08-25T10:13:47;29.80;76.20
32977;DHT22;47687;50.842;4.450;2022-08-25T10:16:23;30.00;76.50
32977;DHT22;47687;50.842;4.450;2022-08-25T10:21:33;30.20;74.10
32977;DHT22;47687;50.842;4.450;2022-08-25T10:23:59;30.30;74.10
32977;DHT22;47687;50.842;4.450;2022-08-25T10:26:58;30.40;72.60
32977;DHT22;47687;50.842;4.450;2022-08-25T10:32:21;30.60;72.00
32977;DHT22;47687;50.842;4.450;2022-08-25T10:34:53;30.90;72.50
32977;DHT22;47687;50.842;4.450;2022-08-25T10:37:34;31.00;71.40
32977;DHT22;47687;50.842;4.450;2022-08-25T10:45:27;31.10;70.80
32977;DHT22;47687;50.842;4.450;2022-08-25T10:54:08;31.20;69.40
32977;DHT22;47687;50.842;4.450;2022-08-25T10:56:43;31.30;69.10
32977;DHT22;47687;50.842;4.450;2022-08-25T11:04:19;31.60;68.20
32977;DHT22;47687;50.842;4.450;2022-08-25T11:06:56;31.60;68.30
32977;DHT22;47687;50.842;4.450;2022-08-25T11:09:29;31.70;67.50
32977;DHT22;47687;50.842;4.450;2022-08-25T11:12:01;31.80;67.80
32977;DHT22;47687;50.842;4.450;2022-08-25T11:14:52;31.70;68.50
32977;DHT22;47687;50.842;4.450;2022-08-25T11:17:45;31.60;65.60
32977;DHT22;47687;50.842;4.450;2022-08-25T11:20:16;31.70;65.90
32977;DHT22;47687;50.842;4.450;2022-08-25T11:22:46;31.80;65.40
32977;DHT22;47687;50.842;4.450;2022-08-25T11:25:27;31.80;67.00
32977;DHT22;47687;50.842;4.450;2022-08-25T11:27:59;31.90;67.00
32977;DHT22;47687;50.842;4.450;2022-08-25T11:30:31;31.90;65.60
32977;DHT22;47687;50.842;4.450;2022-08-25T11:32:56;32.00;67.10
32977;DHT22;47687;50.842;4.450;2022-08-25T11:35:37;31.90;66.80
32977;DHT22;47687;50.842;4.450;2022-08-25T11:38:44;31.80;65.30
32977;DHT22;47687;50.842;4.450;2022-08-25T11:51:44;32.30;65.70
32977;DHT22;47687;50.842;4.450;2022-08-25T11:56:40;32.30;64.50
32977;DHT22;47687;50.842;4.450;2022-08-25T11:59:07;32.30;64.10
32977;DHT22;47687;50.842;4.450;2022-08-25T12:15:13;32.40;64.00
32977;DHT22;47687;50.842;4.450;2022-08-25T12:17:44;32.50;63.60
32977;DHT22;47687;50.842;4.450;2022-08-25T12:20:10;32.40;62.40
32977;DHT22;47687;50.842;4.450;2022-08-25T12:30:41;32.80;63.10
32977;DHT22;47687;50.842;4.450;2022-08-25T12:36:04;32.90;62.00
32977;DHT22;47687;50.842;4.450;2022-08-25T12:41:02;32.90;61.70
32977;DHT22;47687;50.842;4.450;2022-08-25T12:43:40;32.60;62.00
32977;DHT22;47687;50.842;4.450;2022-08-25T12:54:19;33.00;64.00
32977;DHT22;47687;50.842;4.450;2022-08-25T12:56:56;33.10;65.10
32977;DHT22;47687;50.842;4.450;2022-08-25T12:59:34;33.20;63.70
32977;DHT22;47687;50.842;4.450;2022-08-25T13:07:28;33.70;60.90
32977;DHT22;47687;50.842;4.450;2022-08-25T13:16:04;33.30;62.10
32977;DHT22;47687;50.842;4.450;2022-08-25T13:18:37;33.10;62.60
32977;DHT22;47687;50.842;4.450;2022-08-25T13:23:46;33.20;62.00
32977;DHT22;47687;50.842;4.450;2022-08-25T13:26:35;33.30;62.80
32977;DHT22;47687;50.842;4.450;2022-08-25T13:29:10;33.30;60.80
32977;DHT22;47687;50.842;4.450;2022-08-25T13:31:42;33.40;61.40
32977;DHT22;47687;50.842;4.450;2022-08-25T13:34:17;33.60;60.20
32977;DHT22;47687;50.842;4.450;2022-08-25T13:36:44;33.70;60.10
32977;DHT22;47687;50.842;4.450;2022-08-25T13:39:37;33.80;60.10
32977;DHT22;47687;50.842;4.450;2022-08-25T13:42:06;34.10;60.80
32977;DHT22;47687;50.842;4.450;2022-08-25T13:44:44;34.10;60.00
32977;DHT22;47687;50.842;4.450;2022-08-25T13:47:15;34.20;59.50
32977;DHT22;47687;50.842;4.450;2022-08-25T13:49:45;34.30;59.50
32977;DHT22;47687;50.842;4.450;2022-08-25T13:52:25;34.50;58.60
32977;DHT22;47687;50.842;4.450;2022-08-25T13:54:58;34.70;59.40
32977;DHT22;47687;50.842;4.450;2022-08-25T13:57:27;34.90;59.10
32977;DHT22;47687;50.842;4.450;2022-08-25T13:59:59;35.20;60.10
32977;DHT22;47687;50.842;4.450;2022-08-25T14:02:46;35.30;59.20
32977;DHT22;47687;50.842;4.450;2022-08-25T14:05:13;35.30;59.10
32977;DHT22;47687;50.842;4.450;2022-08-25T14:07:55;35.30;60.10
32977;DHT22;47687;50.842;4.450;2022-08-25T14:10:38;35.30;59.10
32977;DHT22;47687;50.842;4.450;2022-08-25T14:13:11;35.20;58.10
32977;DHT22;47687;50.842;4.450;2022-08-25T14:15:38;35.10;57.60
32977;DHT22;47687;50.842;4.450;2022-08-25T14:18:20;35.00;58.10
32977;DHT22;47687;50.842;4.450;2022-08-25T14:20:51;34.30;61.30
32977;DHT22;47687;50.842;4.450;2022-08-25T14:23:20;33.00;67.40
32977;DHT22;47687;50.842;4.450;2022-08-25T14:25:52;31.80;71.70
32977;DHT22;47687;50.842;4.450;2022-08-25T14:28:22;31.50;72.10
32977;DHT22;47687;50.842;4.450;2022-08-25T14:30:52;31.50;71.60
32977;DHT22;47687;50.842;4.450;2022-08-25T14:33:21;31.30;71.10
32977;DHT22;47687;50.842;4.450;2022-08-25T14:35:51;31.60;70.90
32977;DHT22;47687;50.842;4.450;2022-08-25T14:38:18;31.50;70.70
32977;DHT22;47687;50.842;4.450;2022-08-25T14:40:47;31.40;70.50
32977;DHT22;47687;50.842;4.450;2022-08-25T14:43:12;31.50;69.90
32977;DHT22;47687;50.842;4.450;2022-08-25T14:45:42;31.60;68.10
32977;DHT22;47687;50.842;4.450;2022-08-25T14:48:11;31.30;69.20
32977;DHT22;47687;50.842;4.450;2022-08-25T14:50:38;31.20;69.40
32977;DHT22;47687;50.842;4.450;2022-08-25T14:53:05;31.30;70.40
32977;DHT22;47687;50.842;4.450;2022-08-25T14:55:31;31.20;69.80
32977;DHT22;47687;50.842;4.450;2022-08-25T14:57:56;31.10;69.90
32977;DHT22;47687;50.842;4.450;2022-08-25T15:00:22;31.10;70.40
32977;DHT22;47687;50.842;4.450;2022-08-25T15:02:49;31.10;70.00
32977;DHT22;47687;50.842;4.450;2022-08-25T15:05:20;31.00;70.80
32977;DHT22;47687;50.842;4.450;2022-08-25T15:07:50;31.10;70.30
32977;DHT22;47687;50.842;4.450;2022-08-25T15:10:39;31.00;70.60
32977;DHT22;47687;50.842;4.450;2022-08-25T15:13:04;31.20;70.10
32977;DHT22;47687;50.842;4.450;2022-08-25T15:15:31;31.10;69.20
32977;DHT22;47687;50.842;4.450;2022-08-25T15:17:58;31.30;69.70
32977;DHT22;47687;50.842;4.450;2022-08-25T15:20:24;31.30;70.50
32977;DHT22;47687;50.842;4.450;2022-08-25T15:22:49;31.40;69.90
32977;DHT22;47687;50.842;4.450;2022-08-25T15:25:15;31.60;69.60
32977;DHT22;47687;50.842;4.450;2022-08-25T15:27:41;31.50;71.20
32977;DHT22;47687;50.842;4.450;2022-08-25T15:30:07;31.20;72.70
32977;DHT22;47687;50.842;4.450;2022-08-25T15:32:33;31.00;73.10
32977;DHT22;47687;50.842;4.450;2022-08-25T15:34:59;30.80;73.40
32977;DHT22;47687;50.842;4.450;2022-08-25T15:37:25;30.90;73.90
32977;DHT22;47687;50.842;4.450;2022-08-25T15:39:50;30.70;76.40
32977;DHT22;47687;50.842;4.450;2022-08-25T15:42:16;30.50;78.20
32977;DHT22;47687;50.842;4.450;2022-08-25T15:44:43;30.90;78.40
32977;DHT22;47687;50.842;4.450;2022-08-25T15:47:10;30.20;81.00
32977;DHT22;47687;50.842;4.450;2022-08-25T15:49:36;29.90;82.40
32977;DHT22;47687;50.842;4.450;2022-08-25T15:52:02;29.70;83.10
32977;DHT22;47687;50.842;4.450;2022-08-25T15:54:28;29.70;83.60
32977;DHT22;47687;50.842;4.450;2022-08-25T15:56:55;29.60;84.10
32977;DHT22;47687;50.842;4.450;2022-08-25T15:59:21;29.40;84.60
32977;DHT22;47687;50.842;4.450;2022-08-25T16:01:47;29.20;85.40
32977;DHT22;47687;50.842;4.450;2022-08-25T16:04:13;29.10;86.10
32977;DHT22;47687;50.842;4.450;2022-08-25T16:06:39;28.80;87.10
32977;DHT22;47687;50.842;4.450;2022-08-25T16:09:05;28.80;87.50
32977;DHT22;47687;50.842;4.450;2022-08-25T16:11:32;29.20;87.10
32977;DHT22;47687;50.842;4.450;2022-08-25T16:14:00;28.80;88.40
32977;DHT22;47687;50.842;4.450;2022-08-25T16:16:28;28.70;89.70
32977;DHT22;47687;50.842;4.450;2022-08-25T16:18:55;28.60;90.40
32977;DHT22;47687;50.842;4.450;2022-08-25T16:21:25;28.50;91.00
32977;DHT22;47687;50.842;4.450;2022-08-25T16:23:57;28.40;91.50
32977;DHT22;47687;50.842;4.450;2022-08-25T16:26:23;28.30;91.70
32977;DHT22;47687;50.842;4.450;2022-08-25T16:28:52;28.40;91.90
32977;DHT22;47687;50.842;4.450;2022-08-25T16:31:18;28.60;91.70
32977;DHT22;47687;50.842;4.450;2022-08-25T16:33:44;28.60;91.50
32977;DHT22;47687;50.842;4.450;2022-08-25T16:36:18;28.90;90.70
32977;DHT22;47687;50.842;4.450;2022-08-25T16:38:46;28.90;90.30
32977;DHT22;47687;50.842;4.450;2022-08-25T16:41:23;29.00;90.40
32977;DHT22;47687;50.842;4.450;2022-08-25T16:43:51;29.00;90.60
32977;DHT22;47687;50.842;4.450;2022-08-25T16:46:18;28.90;91.00
32977;DHT22;47687;50.842;4.450;2022-08-25T16:48:45;29.10;91.00
32977;DHT22;47687;50.842;4.450;2022-08-25T16:51:13;29.00;91.10
32977;DHT22;47687;50.842;4.450;2022-08-25T16:53:39;28.80;91.50
32977;DHT22;47687;50.842;4.450;2022-08-25T16:56:24;29.00;91.10
32977;DHT22;47687;50.842;4.450;2022-08-25T16:58:57;28.60;91.00
32977;DHT22;47687;50.842;4.450;2022-08-25T17:01:29;28.20;91.60
32977;DHT22;47687;50.842;4.450;2022-08-25T17:03:56;28.10;91.60
32977;DHT22;47687;50.842;4.450;2022-08-25T17:06:25;28.00;91.80
32977;DHT22;47687;50.842;4.450;2022-08-25T17:08:51;27.90;92.00
32977;DHT22;47687;50.842;4.450;2022-08-25T17:11:23;27.70;92.60
32977;DHT22;47687;50.842;4.450;2022-08-25T17:13:52;27.60;93.00
32977;DHT22;47687;50.842;4.450;2022-08-25T17:16:21;27.50;93.20
32977;DHT22;47687;50.842;4.450;2022-08-25T17:18:49;27.40;93.70
32977;DHT22;47687;50.842;4.450;2022-08-25T17:21:16;27.30;93.80
32977;DHT22;47687;50.842;4.450;2022-08-25T17:23:43;27.30;94.00
32977;DHT22;47687;50.842;4.450;2022-08-25T17:26:10;27.20;94.10
32977;DHT22;47687;50.842;4.450;2022-08-25T17:28:37;27.20;94.30
32977;DHT22;47687;50.842;4.450;2022-08-25T17:31:05;27.10;94.30
32977;DHT22;47687;50.842;4.450;2022-08-25T17:33:31;26.80;94.50
32977;DHT22;47687;50.842;4.450;2022-08-25T17:35:57;26.50;95.00
32977;DHT22;47687;50.842;4.450;2022-08-25T17:38:24;26.30;95.70
32977;DHT22;47687;50.842;4.450;2022-08-25T17:40:55;26.20;96.00
32977;DHT22;47687;50.842;4.450;2022-08-25T17:43:27;26.30;96.20